createdAt,value
2019-02-06T00:00:53.580Z,3.80
2019-02-06T00:01:45.440Z,3.80
2019-02-06T00:02:31.922Z,3.80
2019-02-06T00:03:20.730Z,3.80
2019-02-06T00:04:06.669Z,3.80
2019-02-06T00:04:52.886Z,3.80
2019-02-06T00:05:39.125Z,3.80
2019-02-06T00:06:25.266Z,3.80
2019-02-06T00:07:11.601Z,3.80
2019-02-06T00:07:58.214Z,3.80
2019-02-06T00:08:44.150Z,3.80
2019-02-06T00:09:30.582Z,3.80
2019-02-06T00:10:16.939Z,3.80
2019-02-06T00:11:03.200Z,3.80
2019-02-06T00:11:49.694Z,3.80
2019-02-06T00:12:36.068Z,3.80
2019-02-06T00:13:22.311Z,3.80
2019-02-06T00:14:08.756Z,3.80
2019-02-06T00:14:54.752Z,3.70
2019-02-06T00:15:41.042Z,3.70
2019-02-06T00:16:27.675Z,3.80
2019-02-06T00:17:13.709Z,3.80
2019-02-06T00:17:59.889Z,3.70
2019-02-06T00:18:46.718Z,3.70
2019-02-06T00:19:32.998Z,3.70
2019-02-06T00:20:19.222Z,3.70
2019-02-06T00:21:05.396Z,3.70
2019-02-06T00:21:51.607Z,3.70
2019-02-06T00:22:37.765Z,3.70
2019-02-06T00:23:23.894Z,3.70
2019-02-06T00:24:10.141Z,3.70
2019-02-06T00:24:56.337Z,3.70
2019-02-06T00:25:42.579Z,3.70
2019-02-06T00:26:28.748Z,3.70
2019-02-06T00:27:15.144Z,3.70
2019-02-06T00:28:01.583Z,3.70
2019-02-06T00:28:47.379Z,3.70
2019-02-06T00:29:33.539Z,3.70
2019-02-06T00:30:21.037Z,3.70
2019-02-06T00:31:06.998Z,3.70
2019-02-06T00:31:53.156Z,3.70
2019-02-06T00:32:40.277Z,3.70
2019-02-06T00:33:26.347Z,3.70
2019-02-06T00:34:12.126Z,3.70
2019-02-06T00:34:57.894Z,3.70
2019-02-06T00:35:44.051Z,3.70
2019-02-06T00:36:30.315Z,3.70
2019-02-06T00:37:16.448Z,3.60
2019-02-06T00:38:05.253Z,3.70
2019-02-06T00:38:50.474Z,3.60
2019-02-06T00:39:36.471Z,3.60
2019-02-06T00:40:22.657Z,3.60
2019-02-06T00:41:08.823Z,3.60
2019-02-06T00:41:54.864Z,3.60
2019-02-06T00:42:41.166Z,3.60
2019-02-06T00:43:27.216Z,3.60
2019-02-06T00:44:13.140Z,3.60
2019-02-06T00:44:59.082Z,3.60
2019-02-06T00:45:44.933Z,3.60
2019-02-06T00:46:31.147Z,3.60
2019-02-06T00:47:17.267Z,3.60
2019-02-06T00:48:03.083Z,3.60
2019-02-06T00:48:49.193Z,3.60
2019-02-06T00:49:35.470Z,3.60
2019-02-06T00:50:21.768Z,3.60
2019-02-06T00:51:08.079Z,3.60
2019-02-06T00:51:54.327Z,3.60
2019-02-06T00:52:40.561Z,3.60
2019-02-06T00:53:26.890Z,3.60
2019-02-06T00:54:13.037Z,3.60
2019-02-06T00:54:59.107Z,3.60
2019-02-06T00:55:45.279Z,3.60
2019-02-06T00:56:31.494Z,3.60
2019-02-06T00:57:18.788Z,3.60
2019-02-06T00:58:04.715Z,3.60
2019-02-06T00:58:50.379Z,3.60
2019-02-06T00:59:36.568Z,3.60
2019-02-06T01:00:22.599Z,3.60
2019-02-06T01:01:08.813Z,3.60
2019-02-06T01:01:54.756Z,3.60
2019-02-06T01:02:41.091Z,3.60
2019-02-06T01:03:27.072Z,3.50
2019-02-06T01:04:12.936Z,3.50
2019-02-06T01:04:59.155Z,3.50
2019-02-06T01:05:45.043Z,3.50
2019-02-06T01:06:31.036Z,3.50
2019-02-06T01:07:17.191Z,3.50
2019-02-06T01:08:03.764Z,3.50
2019-02-06T01:08:49.848Z,3.50
2019-02-06T01:09:36.019Z,3.50
2019-02-06T01:10:22.231Z,3.50
2019-02-06T01:11:08.292Z,3.50
2019-02-06T01:11:54.330Z,3.50
2019-02-06T01:12:40.521Z,3.50
2019-02-06T01:13:26.720Z,3.50
2019-02-06T01:14:12.848Z,3.50
2019-02-06T01:14:59.005Z,3.50
2019-02-06T01:15:45.277Z,3.50
2019-02-06T01:16:31.333Z,3.50
2019-02-06T01:17:17.470Z,3.50
2019-02-06T01:18:03.391Z,3.50
2019-02-06T01:18:49.399Z,3.50
2019-02-06T01:19:35.158Z,3.50
2019-02-06T01:20:20.944Z,3.50
2019-02-06T01:21:06.779Z,3.40
2019-02-06T01:21:53.025Z,3.40
2019-02-06T01:22:39.159Z,3.40
2019-02-06T01:23:25.128Z,3.40
2019-02-06T01:24:11.456Z,3.40
2019-02-06T01:24:57.605Z,3.40
2019-02-06T01:25:43.362Z,3.40
2019-02-06T01:26:29.536Z,3.40
2019-02-06T01:27:15.274Z,3.50
2019-02-06T01:28:01.429Z,3.40
2019-02-06T01:28:47.477Z,3.40
2019-02-06T01:29:33.588Z,3.40
2019-02-06T01:30:21.742Z,3.40
2019-02-06T01:31:12.018Z,3.40
2019-02-06T01:31:58.003Z,3.40
2019-02-06T01:32:44.153Z,3.40
2019-02-06T01:33:30.568Z,3.40
2019-02-06T01:34:16.589Z,3.40
2019-02-06T01:35:03.025Z,3.40
2019-02-06T01:35:50.189Z,3.40
2019-02-06T01:36:36.513Z,3.40
2019-02-06T01:37:22.837Z,3.40
2019-02-06T01:38:09.219Z,3.40
2019-02-06T01:38:55.360Z,3.40
2019-02-06T01:39:41.614Z,3.40
2019-02-06T01:40:27.664Z,3.40
2019-02-06T01:41:13.449Z,3.40
2019-02-06T01:41:59.642Z,3.40
2019-02-06T01:42:45.814Z,3.30
2019-02-06T01:43:31.533Z,3.30
2019-02-06T01:44:17.335Z,3.30
2019-02-06T01:45:05.177Z,3.30
2019-02-06T01:45:50.883Z,3.30
2019-02-06T01:46:36.652Z,3.30
2019-02-06T01:47:22.983Z,3.30
2019-02-06T01:48:09.272Z,3.30
2019-02-06T01:48:55.532Z,3.30
2019-02-06T01:49:44.655Z,3.30
2019-02-06T01:50:30.068Z,3.30
2019-02-06T01:51:16.248Z,3.30
2019-02-06T01:52:02.375Z,3.30
2019-02-06T01:52:48.575Z,3.30
2019-02-06T01:53:34.353Z,3.30
2019-02-06T01:54:20.548Z,3.30
2019-02-06T01:55:08.062Z,3.30
2019-02-06T01:55:54.024Z,3.30
2019-02-06T01:56:39.861Z,3.30
2019-02-06T01:57:26.015Z,3.30
2019-02-06T01:58:11.718Z,3.30
2019-02-06T01:58:57.831Z,3.30
2019-02-06T01:59:43.538Z,3.20
2019-02-06T02:00:29.288Z,3.20
2019-02-06T02:01:15.576Z,3.20
2019-02-06T02:02:01.767Z,3.20
2019-02-06T02:02:47.704Z,3.30
2019-02-06T02:03:34.224Z,3.30
2019-02-06T02:04:20.035Z,3.30
2019-02-06T02:05:06.358Z,3.20
2019-02-06T02:06:01.718Z,3.20
2019-02-06T02:06:40.733Z,3.20
2019-02-06T02:07:27.046Z,3.30
2019-02-06T02:08:13.377Z,3.20
2019-02-06T02:09:00.498Z,3.20
2019-02-06T02:09:46.381Z,3.20
2019-02-06T02:10:32.487Z,3.20
2019-02-06T02:11:19.232Z,3.20
2019-02-06T02:12:05.186Z,3.20
2019-02-06T02:12:50.935Z,3.20
2019-02-06T02:13:37.012Z,3.20
2019-02-06T02:14:23.284Z,3.20
2019-02-06T02:15:10.249Z,3.20
2019-02-06T02:15:56.235Z,3.20
2019-02-06T02:16:42.221Z,3.20
2019-02-06T02:17:27.894Z,3.20
2019-02-06T02:18:14.005Z,3.20
2019-02-06T02:18:59.651Z,3.10
2019-02-06T02:19:45.442Z,3.20
2019-02-06T02:20:31.109Z,3.20
2019-02-06T02:21:16.857Z,3.20
2019-02-06T02:22:02.581Z,3.20
2019-02-06T02:22:49.019Z,3.20
2019-02-06T02:23:35.106Z,3.20
2019-02-06T02:24:21.291Z,3.20
2019-02-06T02:25:07.625Z,3.20
2019-02-06T02:25:54.040Z,3.20
2019-02-06T02:26:40.000Z,3.20
2019-02-06T02:27:25.687Z,3.20
2019-02-06T02:28:11.743Z,3.20
2019-02-06T02:28:57.474Z,3.20
2019-02-06T02:29:43.612Z,3.20
2019-02-06T02:30:36.891Z,3.10
2019-02-06T02:31:23.056Z,3.10
2019-02-06T02:32:09.256Z,3.10
2019-02-06T02:32:55.529Z,3.10
2019-02-06T02:33:41.725Z,3.20
2019-02-06T02:34:27.775Z,3.10
2019-02-06T02:35:13.959Z,3.10
2019-02-06T02:36:00.114Z,3.10
2019-02-06T02:36:46.432Z,3.10
2019-02-06T02:37:32.365Z,3.10
2019-02-06T02:38:18.052Z,3.10
2019-02-06T02:39:06.575Z,3.10
2019-02-06T02:39:52.438Z,3.10
2019-02-06T02:40:38.218Z,3.10
2019-02-06T02:41:24.314Z,3.10
2019-02-06T02:42:10.413Z,3.10
2019-02-06T02:42:56.552Z,3.10
2019-02-06T02:43:42.876Z,3.10
2019-02-06T02:44:29.248Z,3.10
2019-02-06T02:45:16.411Z,3.10
2019-02-06T02:46:02.749Z,3.20
2019-02-06T02:46:48.982Z,3.10
2019-02-06T02:47:35.120Z,3.10
2019-02-06T02:48:21.421Z,3.10
2019-02-06T02:49:07.712Z,3.10
2019-02-06T02:49:53.974Z,3.10
2019-02-06T02:50:40.239Z,3.10
2019-02-06T02:51:26.077Z,3.10
2019-02-06T02:52:12.428Z,3.10
2019-02-06T02:52:58.679Z,3.20
2019-02-06T02:53:44.790Z,3.10
2019-02-06T02:54:30.519Z,3.20
2019-02-06T02:55:16.789Z,3.20
2019-02-06T02:56:02.863Z,3.20
2019-02-06T02:56:48.894Z,3.20
2019-02-06T02:57:35.144Z,3.20
2019-02-06T02:58:21.104Z,3.20
2019-02-06T02:59:07.168Z,3.20
2019-02-06T02:59:53.314Z,3.10
2019-02-06T03:00:58.398Z,3.20
2019-02-06T03:01:52.720Z,3.20
2019-02-06T03:02:45.161Z,3.20
2019-02-06T03:03:44.589Z,3.20
2019-02-06T03:04:50.629Z,3.20
2019-02-06T03:05:36.879Z,3.20
2019-02-06T03:06:28.326Z,3.20
2019-02-06T03:07:10.710Z,3.20
2019-02-06T03:07:56.972Z,3.20
2019-02-06T03:08:43.124Z,3.20
2019-02-06T03:09:28.786Z,3.20
2019-02-06T03:10:15.228Z,3.20
2019-02-06T03:11:01.463Z,3.20
2019-02-06T03:11:47.590Z,3.20
2019-02-06T03:12:33.848Z,3.20
2019-02-06T03:13:19.782Z,3.20
2019-02-06T03:14:06.100Z,3.20
2019-02-06T03:14:52.602Z,3.20
2019-02-06T03:15:38.620Z,3.20
2019-02-06T03:16:24.590Z,3.20
2019-02-06T03:17:10.348Z,3.20
2019-02-06T03:17:55.988Z,3.10
2019-02-06T03:18:42.132Z,3.20
2019-02-06T03:19:28.290Z,3.20
2019-02-06T03:20:14.575Z,3.20
2019-02-06T03:21:00.503Z,3.20
2019-02-06T03:21:46.920Z,3.20
2019-02-06T03:22:33.140Z,3.20
2019-02-06T03:23:19.156Z,3.10
2019-02-06T03:24:05.261Z,3.20
2019-02-06T03:24:51.195Z,3.20
2019-02-06T03:25:37.391Z,3.20
2019-02-06T03:26:23.652Z,3.20
2019-02-06T03:27:09.374Z,3.20
2019-02-06T03:27:55.144Z,3.20
2019-02-06T03:28:41.311Z,3.20
2019-02-06T03:29:27.653Z,3.20
2019-02-06T03:30:14.603Z,3.20
2019-02-06T03:31:00.668Z,3.20
2019-02-06T03:31:46.968Z,3.20
2019-02-06T03:32:32.653Z,3.20
2019-02-06T03:33:18.322Z,3.20
2019-02-06T03:34:05.119Z,3.20
2019-02-06T03:34:51.210Z,3.20
2019-02-06T03:35:37.175Z,3.20
2019-02-06T03:36:23.325Z,3.20
2019-02-06T03:37:09.105Z,3.10
2019-02-06T03:37:55.319Z,3.10
2019-02-06T03:38:41.471Z,3.20
2019-02-06T03:39:27.699Z,3.10
2019-02-06T03:40:15.384Z,3.20
2019-02-06T03:41:01.685Z,3.20
2019-02-06T03:41:47.651Z,3.20
2019-02-06T03:42:33.353Z,3.20
2019-02-06T03:43:19.661Z,3.20
2019-02-06T03:44:05.997Z,3.10
2019-02-06T03:44:52.675Z,3.10
2019-02-06T03:45:38.812Z,3.10
2019-02-06T03:46:24.550Z,3.10
2019-02-06T03:47:10.858Z,3.10
2019-02-06T03:47:56.711Z,3.10
2019-02-06T03:48:43.967Z,3.10
2019-02-06T03:49:30.195Z,3.10
2019-02-06T03:50:16.353Z,3.10
2019-02-06T03:51:02.044Z,3.10
2019-02-06T03:51:48.170Z,3.10
2019-02-06T03:52:34.291Z,3.10
2019-02-06T03:53:20.423Z,3.10
2019-02-06T03:54:06.680Z,3.10
2019-02-06T03:54:52.930Z,3.10
2019-02-06T03:55:38.831Z,3.10
2019-02-06T03:56:24.533Z,3.10
2019-02-06T03:57:10.741Z,3.10
2019-02-06T03:57:56.966Z,3.10
2019-02-06T03:58:43.120Z,3.10
2019-02-06T03:59:29.359Z,3.10
2019-02-06T04:00:15.261Z,3.10
2019-02-06T04:01:01.321Z,3.10
2019-02-06T04:01:47.099Z,3.10
2019-02-06T04:02:33.408Z,3.10
2019-02-06T04:03:19.603Z,3.10
2019-02-06T04:04:05.404Z,3.10
2019-02-06T04:04:51.169Z,3.10
2019-02-06T04:05:37.390Z,3.10
2019-02-06T04:06:23.523Z,3.10
2019-02-06T04:07:09.654Z,3.10
2019-02-06T04:07:55.462Z,3.10
2019-02-06T04:08:41.848Z,3.10
2019-02-06T04:09:27.715Z,3.10
2019-02-06T04:10:14.100Z,3.10
2019-02-06T04:11:00.055Z,3.10
2019-02-06T04:11:46.222Z,3.10
2019-02-06T04:12:32.385Z,3.10
2019-02-06T04:13:18.554Z,3.10
2019-02-06T04:14:07.549Z,3.10
2019-02-06T04:14:53.565Z,3.10
2019-02-06T04:15:39.301Z,3.10
2019-02-06T04:16:25.514Z,3.10
2019-02-06T04:17:11.736Z,3.10
2019-02-06T04:17:57.970Z,3.10
2019-02-06T04:18:44.331Z,3.10
2019-02-06T04:19:30.348Z,3.10
2019-02-06T04:20:16.149Z,3.10
2019-02-06T04:21:02.409Z,3.10
2019-02-06T04:21:48.684Z,3.10
2019-02-06T04:22:35.031Z,3.10
2019-02-06T04:23:20.860Z,3.10
2019-02-06T04:24:07.031Z,3.10
2019-02-06T04:24:53.137Z,3.10
2019-02-06T04:25:38.787Z,3.10
2019-02-06T04:26:24.452Z,3.10
2019-02-06T04:27:10.067Z,3.10
2019-02-06T04:27:55.915Z,3.10
2019-02-06T04:28:41.920Z,3.10
2019-02-06T04:29:28.076Z,3.10
2019-02-06T04:30:14.648Z,3.10
2019-02-06T04:31:00.266Z,3.10
2019-02-06T04:31:45.967Z,3.00
2019-02-06T04:32:31.728Z,3.00
2019-02-06T04:33:17.491Z,3.00
2019-02-06T04:34:03.834Z,3.10
2019-02-06T04:34:50.048Z,3.10
2019-02-06T04:35:36.356Z,3.10
2019-02-06T04:36:22.581Z,3.10
2019-02-06T04:37:08.714Z,3.10
2019-02-06T04:37:55.048Z,3.10
2019-02-06T04:38:41.164Z,3.00
2019-02-06T04:39:27.337Z,3.10
2019-02-06T04:40:15.173Z,3.00
2019-02-06T04:41:01.069Z,3.10
2019-02-06T04:41:47.367Z,3.00
2019-02-06T04:42:33.327Z,3.10
2019-02-06T04:43:18.986Z,3.10
2019-02-06T04:44:05.337Z,3.10
2019-02-06T04:44:51.795Z,3.10
2019-02-06T04:45:37.683Z,3.10
2019-02-06T04:46:23.910Z,3.10
2019-02-06T04:47:09.543Z,3.10
2019-02-06T04:47:55.825Z,3.10
2019-02-06T04:48:41.835Z,3.10
2019-02-06T04:49:28.078Z,3.00
2019-02-06T04:50:14.476Z,3.10
2019-02-06T04:51:00.532Z,3.10
2019-02-06T04:51:46.299Z,3.00
2019-02-06T04:52:32.225Z,3.10
2019-02-06T04:53:18.257Z,3.10
2019-02-06T04:54:04.680Z,3.10
2019-02-06T04:54:50.712Z,3.10
2019-02-06T04:55:36.762Z,3.10
2019-02-06T04:56:22.401Z,3.10
2019-02-06T04:57:09.537Z,3.10
2019-02-06T04:57:55.753Z,3.10
2019-02-06T04:58:41.958Z,3.10
2019-02-06T04:59:28.063Z,3.10
2019-02-06T05:00:19.776Z,3.10
2019-02-06T05:01:05.998Z,3.10
2019-02-06T05:01:52.704Z,3.10
2019-02-06T05:02:38.809Z,3.10
2019-02-06T05:03:25.796Z,3.10
2019-02-06T05:04:12.066Z,3.10
2019-02-06T05:04:58.244Z,3.10
2019-02-06T05:05:44.369Z,3.10
2019-02-06T05:06:30.032Z,3.10
2019-02-06T05:07:19.373Z,3.10
2019-02-06T05:08:03.464Z,3.10
2019-02-06T05:08:49.443Z,3.10
2019-02-06T05:09:35.853Z,3.10
2019-02-06T05:10:21.832Z,3.10
2019-02-06T05:11:07.548Z,3.10
2019-02-06T05:11:53.251Z,3.10
2019-02-06T05:12:39.322Z,3.10
2019-02-06T05:13:25.670Z,3.10
2019-02-06T05:14:11.886Z,3.10
2019-02-06T05:14:58.168Z,3.10
2019-02-06T05:15:44.370Z,3.20
2019-02-06T05:16:30.065Z,3.20
2019-02-06T05:17:16.326Z,3.20
2019-02-06T05:18:07.640Z,3.20
2019-02-06T05:18:53.455Z,3.20
2019-02-06T05:19:39.184Z,3.20
2019-02-06T05:20:36.546Z,3.20
2019-02-06T05:21:22.774Z,3.20
2019-02-06T05:22:08.466Z,3.20
2019-02-06T05:22:54.597Z,3.20
2019-02-06T05:23:40.794Z,3.20
2019-02-06T05:24:26.973Z,3.20
2019-02-06T05:25:13.145Z,3.20
2019-02-06T05:25:59.444Z,3.20
2019-02-06T05:26:45.437Z,3.20
2019-02-06T05:27:31.539Z,3.20
2019-02-06T05:28:18.359Z,3.20
2019-02-06T05:29:04.525Z,3.20
2019-02-06T05:29:50.252Z,3.20
2019-02-06T05:30:36.498Z,3.20
2019-02-06T05:31:22.309Z,3.20
2019-02-06T05:32:08.584Z,3.20
2019-02-06T05:32:54.915Z,3.20
2019-02-06T05:33:41.111Z,3.20
2019-02-06T05:34:27.663Z,3.20
2019-02-06T05:35:13.946Z,3.20
2019-02-06T05:36:00.302Z,3.20
2019-02-06T05:36:46.373Z,3.20
2019-02-06T05:37:32.786Z,3.20
2019-02-06T05:38:18.839Z,3.20
2019-02-06T05:39:06.846Z,3.20
2019-02-06T05:39:53.202Z,3.20
2019-02-06T05:40:38.921Z,3.20
2019-02-06T05:41:25.075Z,3.20
2019-02-06T05:42:11.316Z,3.20
2019-02-06T05:42:57.436Z,3.10
2019-02-06T05:43:43.100Z,3.20
2019-02-06T05:44:29.280Z,3.20
2019-02-06T05:45:15.072Z,3.20
2019-02-06T05:46:01.083Z,3.20
2019-02-06T05:46:47.583Z,3.20
2019-02-06T05:47:33.720Z,3.20
2019-02-06T05:48:19.391Z,3.10
2019-02-06T05:49:05.572Z,3.20
2019-02-06T05:49:51.328Z,3.10
2019-02-06T05:50:37.522Z,3.10
2019-02-06T05:51:23.798Z,3.10
2019-02-06T05:52:10.119Z,3.20
2019-02-06T05:52:56.441Z,3.20
2019-02-06T05:53:42.700Z,3.20
2019-02-06T05:54:28.985Z,3.20
2019-02-06T05:55:14.927Z,3.10
2019-02-06T05:56:01.241Z,3.20
2019-02-06T05:56:47.453Z,3.10
2019-02-06T05:57:33.503Z,3.10
2019-02-06T05:58:19.658Z,3.10
2019-02-06T05:59:06.244Z,3.10
2019-02-06T05:59:52.524Z,3.10
2019-02-06T06:00:42.595Z,3.10
2019-02-06T06:01:28.446Z,3.10
2019-02-06T06:02:14.669Z,3.10
2019-02-06T06:03:00.880Z,3.10
2019-02-06T06:03:47.043Z,3.10
2019-02-06T06:04:33.202Z,3.10
2019-02-06T06:05:19.396Z,3.10
2019-02-06T06:06:05.230Z,3.10
2019-02-06T06:06:51.140Z,3.10
2019-02-06T06:07:45.087Z,3.00
2019-02-06T06:08:25.335Z,3.00
2019-02-06T06:09:10.973Z,3.00
2019-02-06T06:09:57.155Z,3.10
2019-02-06T06:10:43.344Z,3.00
2019-02-06T06:11:29.578Z,3.00
2019-02-06T06:12:15.348Z,3.00
2019-02-06T06:13:01.775Z,3.00
2019-02-06T06:13:47.961Z,3.00
2019-02-06T06:14:34.273Z,3.00
2019-02-06T06:15:20.274Z,3.00
2019-02-06T06:16:06.434Z,3.00
2019-02-06T06:16:52.885Z,3.00
2019-02-06T06:17:38.834Z,3.00
2019-02-06T06:18:25.059Z,3.00
2019-02-06T06:19:11.231Z,3.00
2019-02-06T06:19:56.885Z,3.00
2019-02-06T06:20:43.154Z,3.00
2019-02-06T06:21:29.453Z,3.00
2019-02-06T06:22:15.471Z,3.00
2019-02-06T06:23:01.580Z,3.00
2019-02-06T06:23:47.737Z,3.00
2019-02-06T06:24:34.004Z,3.00
2019-02-06T06:25:20.497Z,3.00
2019-02-06T06:26:06.943Z,3.00
2019-02-06T06:26:53.127Z,3.00
2019-02-06T06:27:39.300Z,3.00
2019-02-06T06:28:25.573Z,3.00
2019-02-06T06:29:11.777Z,3.00
2019-02-06T06:29:58.022Z,3.00
2019-02-06T06:30:47.150Z,3.00
2019-02-06T06:31:31.903Z,3.00
2019-02-06T06:32:18.187Z,3.00
2019-02-06T06:33:03.940Z,3.00
2019-02-06T06:33:50.216Z,3.00
2019-02-06T06:34:36.621Z,3.00
2019-02-06T06:35:22.807Z,3.00
2019-02-06T06:36:10.052Z,3.00
2019-02-06T06:36:56.954Z,3.10
2019-02-06T06:37:43.481Z,3.00
2019-02-06T06:38:29.783Z,3.00
2019-02-06T06:39:16.716Z,3.00
2019-02-06T06:40:03.627Z,3.00
2019-02-06T06:40:49.972Z,3.00
2019-02-06T06:41:35.669Z,3.00
2019-02-06T06:42:24.160Z,3.00
2019-02-06T06:43:09.522Z,3.10
2019-02-06T06:43:55.668Z,3.10
2019-02-06T06:44:41.950Z,3.10
2019-02-06T06:45:28.209Z,3.10
2019-02-06T06:46:14.363Z,3.10
2019-02-06T06:47:00.521Z,3.10
2019-02-06T06:47:46.800Z,3.10
2019-02-06T06:48:33.136Z,3.10
2019-02-06T06:49:19.200Z,3.10
2019-02-06T06:50:07.035Z,3.10
2019-02-06T06:50:52.883Z,3.10
2019-02-06T06:51:38.525Z,3.10
2019-02-06T06:52:24.229Z,3.10
2019-02-06T06:53:09.924Z,3.10
2019-02-06T06:53:56.195Z,3.10
2019-02-06T06:54:42.002Z,3.20
2019-02-06T06:55:28.358Z,3.20
2019-02-06T06:56:14.569Z,3.20
2019-02-06T06:57:00.435Z,3.10
2019-02-06T06:57:46.692Z,3.10
2019-02-06T06:58:32.930Z,3.20
2019-02-06T06:59:19.139Z,3.20
2019-02-06T07:00:07.590Z,3.10
2019-02-06T07:00:53.468Z,3.10
2019-02-06T07:01:39.533Z,3.20
2019-02-06T07:02:25.597Z,3.20
2019-02-06T07:03:11.815Z,3.20
2019-02-06T07:03:58.070Z,3.20
2019-02-06T07:04:44.217Z,3.20
2019-02-06T07:05:30.356Z,3.20
2019-02-06T07:06:16.549Z,3.20
2019-02-06T07:07:02.720Z,3.20
2019-02-06T07:07:49.288Z,3.20
2019-02-06T07:08:35.003Z,3.20
2019-02-06T07:09:21.292Z,3.20
2019-02-06T07:10:08.010Z,3.20
2019-02-06T07:10:54.103Z,3.20
2019-02-06T07:11:39.850Z,3.20
2019-02-06T07:12:26.224Z,3.30
2019-02-06T07:13:12.868Z,3.20
2019-02-06T07:13:58.618Z,3.20
2019-02-06T07:14:44.828Z,3.20
2019-02-06T07:15:32.665Z,3.20
2019-02-06T07:16:19.387Z,3.30
2019-02-06T07:17:05.256Z,3.30
2019-02-06T07:17:51.661Z,3.30
2019-02-06T07:18:37.613Z,3.30
2019-02-06T07:19:23.546Z,3.30
2019-02-06T07:20:11.599Z,3.30
2019-02-06T07:20:57.989Z,3.30
2019-02-06T07:21:44.056Z,3.30
2019-02-06T07:22:30.477Z,3.30
2019-02-06T07:23:16.598Z,3.30
2019-02-06T07:24:02.743Z,3.30
2019-02-06T07:24:48.841Z,3.30
2019-02-06T07:25:34.963Z,3.40
2019-02-06T07:26:20.643Z,3.40
2019-02-06T07:27:06.981Z,3.30
2019-02-06T07:27:53.020Z,3.40
2019-02-06T07:28:39.021Z,3.30
2019-02-06T07:29:25.181Z,3.40
2019-02-06T07:30:15.980Z,3.40
2019-02-06T07:31:02.018Z,3.40
2019-02-06T07:31:48.116Z,3.40
2019-02-06T07:32:36.242Z,3.40
2019-02-06T07:33:21.439Z,3.40
2019-02-06T07:34:07.642Z,3.40
2019-02-06T07:34:53.969Z,3.50
2019-02-06T07:35:40.343Z,3.50
2019-02-06T07:36:26.008Z,3.50
2019-02-06T07:37:11.846Z,3.50
2019-02-06T07:37:58.269Z,3.50
2019-02-06T07:38:44.203Z,3.50
2019-02-06T07:39:30.748Z,3.60
2019-02-06T07:40:17.261Z,3.50
2019-02-06T07:41:03.525Z,3.50
2019-02-06T07:41:49.820Z,3.60
2019-02-06T07:42:35.793Z,3.60
2019-02-06T07:43:22.131Z,3.60
2019-02-06T07:44:08.251Z,3.60
2019-02-06T07:44:57.015Z,3.60
2019-02-06T07:45:43.316Z,3.60
2019-02-06T07:46:29.828Z,3.60
2019-02-06T07:47:15.664Z,3.70
2019-02-06T07:48:01.503Z,3.70
2019-02-06T07:48:47.728Z,3.70
2019-02-06T07:49:33.490Z,3.70
2019-02-06T07:50:24.676Z,3.70
2019-02-06T07:51:11.021Z,3.70
2019-02-06T07:51:57.160Z,3.70
2019-02-06T07:52:43.432Z,3.70
2019-02-06T07:53:29.755Z,3.70
2019-02-06T07:54:15.483Z,3.80
2019-02-06T07:55:01.120Z,3.80
2019-02-06T07:55:47.540Z,3.80
2019-02-06T07:56:33.519Z,3.80
2019-02-06T07:57:19.848Z,3.80
2019-02-06T07:58:06.225Z,3.90
2019-02-06T07:58:52.496Z,3.80
2019-02-06T07:59:38.165Z,3.80
2019-02-06T08:00:24.482Z,3.90
2019-02-06T08:01:10.645Z,3.90
2019-02-06T08:01:56.543Z,3.90
2019-02-06T08:02:42.848Z,3.90
2019-02-06T08:03:28.878Z,3.90
2019-02-06T08:04:15.063Z,4.00
2019-02-06T08:05:01.424Z,3.90
2019-02-06T08:05:47.638Z,3.90
2019-02-06T08:06:33.723Z,4.00
2019-02-06T08:07:20.063Z,4.00
2019-02-06T08:08:06.562Z,4.00
2019-02-06T08:08:52.506Z,4.00
2019-02-06T08:09:38.850Z,4.00
2019-02-06T08:10:26.962Z,4.00
2019-02-06T08:11:12.998Z,4.00
2019-02-06T08:11:59.774Z,4.00
2019-02-06T08:12:45.820Z,4.10
2019-02-06T08:13:32.015Z,4.10
2019-02-06T08:14:18.226Z,4.10
2019-02-06T08:15:05.451Z,4.10
2019-02-06T08:15:51.427Z,4.10
2019-02-06T08:16:37.612Z,4.10
2019-02-06T08:17:23.340Z,4.10
2019-02-06T08:18:09.377Z,4.10
2019-02-06T08:18:55.519Z,4.10
2019-02-06T08:19:41.204Z,4.10
2019-02-06T08:20:26.947Z,4.20
2019-02-06T08:21:13.084Z,4.10
2019-02-06T08:21:59.192Z,4.20
2019-02-06T08:22:44.880Z,4.20
2019-02-06T08:23:31.171Z,4.20
2019-02-06T08:24:16.858Z,4.20
2019-02-06T08:25:03.361Z,4.20
2019-02-06T08:25:49.803Z,4.20
2019-02-06T08:26:35.926Z,4.20
2019-02-06T08:27:22.246Z,4.20
2019-02-06T08:28:08.451Z,4.20
2019-02-06T08:28:54.325Z,4.30
2019-02-06T08:29:39.968Z,4.30
2019-02-06T08:30:30.680Z,4.30
2019-02-06T08:31:16.647Z,4.30
2019-02-06T08:32:02.440Z,4.30
2019-02-06T08:32:48.624Z,4.30
2019-02-06T08:33:34.345Z,4.40
2019-02-06T08:34:20.375Z,4.40
2019-02-06T08:35:06.517Z,4.40
2019-02-06T08:35:52.747Z,4.40
2019-02-06T08:36:38.972Z,4.40
2019-02-06T08:37:24.655Z,4.40
2019-02-06T08:38:10.409Z,4.40
2019-02-06T08:38:56.529Z,4.40
2019-02-06T08:39:42.728Z,4.50
2019-02-06T08:40:28.865Z,4.50
2019-02-06T08:41:15.252Z,4.50
2019-02-06T08:42:01.412Z,4.50
2019-02-06T08:42:47.625Z,4.50
2019-02-06T08:43:34.073Z,4.50
2019-02-06T08:44:20.085Z,4.50
2019-02-06T08:45:06.311Z,4.50
2019-02-06T08:45:53.032Z,4.50
2019-02-06T08:46:38.966Z,4.50
2019-02-06T08:47:25.351Z,4.50
2019-02-06T08:48:11.551Z,4.60
2019-02-06T08:48:58.093Z,4.60
2019-02-06T08:49:43.962Z,4.60
2019-02-06T08:50:30.093Z,4.60
2019-02-06T08:51:15.788Z,4.60
2019-02-06T08:52:01.717Z,4.60
2019-02-06T08:52:47.990Z,4.60
2019-02-06T08:53:33.942Z,4.60
2019-02-06T08:54:20.437Z,4.60
2019-02-06T08:55:08.831Z,4.70
2019-02-06T08:55:55.538Z,4.70
2019-02-06T08:56:41.455Z,4.70
2019-02-06T08:57:27.599Z,4.70
2019-02-06T08:58:13.344Z,4.70
2019-02-06T08:58:59.560Z,4.70
2019-02-06T08:59:45.587Z,4.70
2019-02-06T09:00:33.350Z,4.70
2019-02-06T09:01:19.510Z,4.70
2019-02-06T09:02:05.194Z,4.70
2019-02-06T09:02:50.959Z,4.70
2019-02-06T09:03:37.115Z,4.70
2019-02-06T09:04:22.827Z,4.70
2019-02-06T09:05:08.793Z,4.70
2019-02-06T09:05:54.745Z,4.80
2019-02-06T09:06:40.524Z,4.80
2019-02-06T09:07:26.749Z,4.80
2019-02-06T09:08:13.174Z,4.80
2019-02-06T09:09:00.103Z,4.80
2019-02-06T09:09:46.174Z,4.90
2019-02-06T09:10:32.478Z,4.90
2019-02-06T09:11:18.781Z,4.90
2019-02-06T09:12:04.673Z,4.90
2019-02-06T09:12:50.511Z,4.90
2019-02-06T09:13:36.431Z,5.00
2019-02-06T09:14:22.559Z,5.00
2019-02-06T09:15:08.985Z,5.10
2019-02-06T09:15:54.775Z,5.00
2019-02-06T09:16:40.428Z,5.00
2019-02-06T09:17:26.761Z,5.10
2019-02-06T09:18:12.911Z,5.10
2019-02-06T09:18:59.188Z,5.20
2019-02-06T09:19:45.633Z,5.20
2019-02-06T09:20:31.947Z,5.30
2019-02-06T09:21:18.565Z,5.40
2019-02-06T09:22:04.559Z,5.40
2019-02-06T09:22:50.649Z,5.50
2019-02-06T09:23:36.871Z,5.50
2019-02-06T09:24:23.060Z,5.50
2019-02-06T09:25:10.305Z,5.60
2019-02-06T09:25:57.495Z,5.60
2019-02-06T09:26:43.852Z,5.70
2019-02-06T09:27:29.995Z,5.70
2019-02-06T09:28:15.712Z,5.70
2019-02-06T09:29:01.974Z,5.80
2019-02-06T09:29:48.143Z,5.80
2019-02-06T09:30:35.170Z,5.90
2019-02-06T09:31:21.871Z,5.90
2019-02-06T09:32:07.905Z,6.00
2019-02-06T09:32:54.723Z,6.10
2019-02-06T09:33:41.160Z,6.10
2019-02-06T09:34:27.263Z,6.20
2019-02-06T09:35:13.417Z,6.30
2019-02-06T09:35:59.585Z,6.30
2019-02-06T09:36:45.665Z,6.40
2019-02-06T09:37:31.304Z,6.40
2019-02-06T09:38:17.407Z,6.50
2019-02-06T09:39:11.706Z,6.60
2019-02-06T09:39:54.752Z,6.70
2019-02-06T09:40:40.965Z,6.60
2019-02-06T09:41:26.624Z,6.60
2019-02-06T09:42:12.720Z,6.70
2019-02-06T09:42:59.277Z,6.70
2019-02-06T09:43:45.611Z,6.70
2019-02-06T09:44:31.995Z,6.70
2019-02-06T09:45:17.857Z,6.80
2019-02-06T09:46:03.850Z,6.80
2019-02-06T09:46:49.833Z,6.80
2019-02-06T09:47:36.155Z,6.80
2019-02-06T09:48:22.878Z,6.80
2019-02-06T09:49:09.054Z,6.90
2019-02-06T09:49:55.313Z,6.90
2019-02-06T09:50:41.120Z,6.90
2019-02-06T09:51:27.431Z,6.90
2019-02-06T09:52:13.153Z,7.00
2019-02-06T09:52:58.820Z,6.90
2019-02-06T09:53:45.009Z,6.90
2019-02-06T09:54:31.181Z,6.90
2019-02-06T09:55:17.576Z,6.90
2019-02-06T09:56:03.807Z,6.90
2019-02-06T09:56:50.756Z,6.90
2019-02-06T09:57:36.986Z,6.90
2019-02-06T09:58:23.518Z,6.80
2019-02-06T09:59:09.635Z,6.90
2019-02-06T09:59:55.883Z,6.90
2019-02-06T10:00:41.972Z,6.80
2019-02-06T10:01:27.891Z,6.80
2019-02-06T10:02:13.999Z,6.80
2019-02-06T10:03:00.830Z,6.90
2019-02-06T10:03:47.108Z,6.90
2019-02-06T10:04:33.363Z,6.90
2019-02-06T10:05:19.633Z,6.90
2019-02-06T10:06:05.714Z,7.00
2019-02-06T10:06:54.296Z,7.00
2019-02-06T10:07:39.342Z,7.10
2019-02-06T10:08:25.066Z,7.10
2019-02-06T10:09:22.295Z,7.10
2019-02-06T10:09:58.748Z,7.10
2019-02-06T10:10:44.790Z,7.10
2019-02-06T10:11:31.015Z,7.10
2019-02-06T10:12:17.324Z,7.00
2019-02-06T10:13:03.176Z,7.00
2019-02-06T10:13:49.208Z,7.10
2019-02-06T10:14:35.361Z,7.10
2019-02-06T10:15:26.179Z,7.20
2019-02-06T10:16:12.211Z,7.20
2019-02-06T10:16:58.379Z,7.10
2019-02-06T10:17:44.035Z,7.10